Time;durP1;ratioP1;P1;durP2;ratioP2;P2;SDS_P1;SDS_P2;PMS_P1;PMS_P2;Temp;Humidity;BMP_temperature;BMP_pressure;BME280_temperature;BME280_humidity;BME280_pressure;Samples;Min_cycle;Max_cycle;Signal;HPM_P1;HPM_P2
2022/03/07 00:01:46;;;;;;;15.63;7.88;;;;;;;;;;5086295;28;20036;-76
2022/03/07 00:04:14;;;;;;;15.93;7.68;;;;;;;;;;5087689;28;20096;-77
2022/03/07 00:06:40;;;;;;;14.75;6.90;;;;;;;;;;5089271;28;20496;-77
2022/03/07 00:09:05;;;;;;;17.20;7.03;;;;;;;;;;5087381;28;20047;-77
2022/03/07 00:11:31;;;;;;;17.63;7.60;;;;;;;;;;5084973;27;20045;-77
2022/03/07 00:13:56;;;;;;;14.15;7.10;;;;;;;;;;5085821;27;20039;-77
2022/03/07 00:16:21;;;;;;;22.67;8.57;;;;;;;;;;5103775;27;20069;-76
2022/03/07 00:18:47;;;;;;;18.73;8.00;;;;;;;;;;5104392;28;20520;-77
2022/03/07 00:21:12;;;;;;;13.68;6.93;;;;;;;;;;5089035;27;20111;-77
2022/03/07 00:23:38;;;;;;;14.60;7.20;;;;;;;;;;5088180;28;20115;-77
2022/03/07 00:26:07;;;;;;;15.93;6.97;;;;;;;;;;5106760;27;20130;-76
2022/03/07 00:28:32;;;;;;;17.45;7.45;;;;;;;;;;5103495;27;20058;-77
2022/03/07 00:30:58;;;;;;;14.93;6.93;;;;;;;;;;5107296;28;20050;-76
2022/03/07 00:33:23;;;;;;;20.95;7.70;;;;;;;;;;5086147;28;20044;-76
2022/03/07 00:35:48;;;;;;;18.08;7.63;;;;;;;;;;5106482;27;20047;-77
2022/03/07 00:38:14;;;;;;;19.25;8.73;;;;;;;;;;5105714;27;20042;-78
2022/03/07 00:40:39;;;;;;;16.92;6.97;;;;;;;;;;5102737;27;20038;-78
2022/03/07 00:43:08;;;;;;;16.35;6.45;;;;;;;;;;5103523;28;20050;-76
2022/03/07 00:45:34;;;;;;;13.85;6.47;;;;;;;;;;5086194;28;20044;-77
2022/03/07 00:47:59;;;;;;;15.27;6.80;;;;;;;;;;5101087;27;20042;-76
2022/03/07 00:50:25;;;;;;;12.32;6.88;;;;;;;;;;5094390;27;20035;-77
2022/03/07 00:52:50;;;;;;;12.10;5.95;;;;;;;;;;5090728;27;20031;-76
2022/03/07 00:55:15;;;;;;;16.48;7.97;;;;;;;;;;5098345;28;20020;-76
2022/03/07 00:57:41;;;;;;;19.05;8.45;;;;;;;;;;5100434;27;20084;-78
2022/03/07 01:00:07;;;;;;;19.75;7.95;;;;;;;;;;5099794;27;20582;-76
2022/03/07 01:02:32;;;;;;;17.17;7.55;;;;;;;;;;5105281;27;20035;-77
2022/03/07 01:04:59;;;;;;;18.20;8.10;;;;;;;;;;5105993;27;20035;-77
2022/03/07 01:07:24;;;;;;;14.18;6.57;;;;;;;;;;5100031;27;20405;-77
2022/03/07 01:09:49;;;;;;;15.57;6.88;;;;;;;;;;5107309;27;20024;-76
2022/03/07 01:12:15;;;;;;;16.15;7.35;;;;;;;;;;5102942;27;20428;-77
2022/03/07 01:14:40;;;;;;;17.17;8.05;;;;;;;;;;5107006;27;20035;-77
2022/03/07 01:17:05;;;;;;;17.40;7.18;;;;;;;;;;5103119;27;20113;-77
2022/03/07 01:19:31;;;;;;;15.13;7.03;;;;;;;;;;5101220;27;20051;-77
2022/03/07 01:21:56;;;;;;;16.42;7.40;;;;;;;;;;5105363;28;20047;-76
2022/03/07 01:24:21;;;;;;;15.93;7.40;;;;;;;;;;5099144;28;20036;-76
2022/03/07 01:26:47;;;;;;;19.10;7.85;;;;;;;;;;5103495;27;20067;-76
2022/03/07 01:29:12;;;;;;;20.02;8.45;;;;;;;;;;5101025;27;20084;-76
2022/03/07 01:31:37;;;;;;;17.17;8.07;;;;;;;;;;5095423;27;20038;-77
2022/03/07 01:34:03;;;;;;;19.90;7.78;;;;;;;;;;5105667;28;20030;-77
2022/03/07 01:36:28;;;;;;;18.33;7.85;;;;;;;;;;5102992;28;20031;-77
2022/03/07 01:38:53;;;;;;;14.77;7.65;;;;;;;;;;5106568;27;20044;-78
2022/03/07 01:41:19;;;;;;;21.00;7.88;;;;;;;;;;5092357;28;20838;-76
2022/03/07 01:43:44;;;;;;;19.70;8.93;;;;;;;;;;5106412;27;20492;-76
2022/03/07 01:46:10;;;;;;;17.27;7.22;;;;;;;;;;5107219;27;20492;-76
2022/03/07 01:48:38;;;;;;;19.50;9.45;;;;;;;;;;5110585;28;20031;-76
2022/03/07 01:51:04;;;;;;;16.02;7.53;;;;;;;;;;5088537;28;20039;-77
2022/03/07 01:53:29;;;;;;;17.45;7.88;;;;;;;;;;5085604;28;20040;-76
2022/03/07 01:55:56;;;;;;;16.25;7.50;;;;;;;;;;5086254;28;20043;-77
2022/03/07 01:58:21;;;;;;;16.23;7.53;;;;;;;;;;5077104;27;20044;-77
2022/03/07 02:00:47;;;;;;;17.00;7.65;;;;;;;;;;5088955;28;20101;-77
2022/03/07 02:03:13;;;;;;;15.60;8.02;;;;;;;;;;5103216;27;20122;-76
2022/03/07 02:05:39;;;;;;;18.00;7.68;;;;;;;;;;5106227;27;20123;-76
2022/03/07 02:08:06;;;;;;;18.30;8.27;;;;;;;;;;5105814;27;20060;-77
2022/03/07 02:10:31;;;;;;;15.63;7.25;;;;;;;;;;5110493;27;20428;-76
2022/03/07 02:12:56;;;;;;;15.75;7.13;;;;;;;;;;5111758;27;20524;-77
2022/03/07 02:15:21;;;;;;;19.40;7.40;;;;;;;;;;5108302;28;20605;-76
2022/03/07 02:17:47;;;;;;;19.73;8.93;;;;;;;;;;5110877;27;20516;-76
2022/03/07 02:20:13;;;;;;;20.60;8.85;;;;;;;;;;5109780;27;20048;-78
2022/03/07 02:22:38;;;;;;;15.98;7.28;;;;;;;;;;5110131;27;20622;-77
2022/03/07 02:25:05;;;;;;;14.88;7.68;;;;;;;;;;5111321;27;20035;-77
2022/03/07 02:27:32;;;;;;;15.07;7.07;;;;;;;;;;5116301;27;20574;-76
2022/03/07 02:29:59;;;;;;;17.33;8.27;;;;;;;;;;5094966;27;20043;-76
2022/03/07 02:32:25;;;;;;;15.65;6.85;;;;;;;;;;5089084;28;20060;-76
2022/03/07 02:34:50;;;;;;;13.90;6.78;;;;;;;;;;5088845;28;20067;-76
2022/03/07 02:37:16;;;;;;;16.20;7.40;;;;;;;;;;5088211;28;20620;-78
2022/03/07 02:39:41;;;;;;;15.32;6.80;;;;;;;;;;5086236;28;20035;-76
2022/03/07 02:42:07;;;;;;;20.40;7.68;;;;;;;;;;5088390;28;20131;-76
2022/03/07 02:44:32;;;;;;;19.83;8.75;;;;;;;;;;5087362;28;20036;-77
2022/03/07 02:46:58;;;;;;;19.58;9.73;;;;;;;;;;5080565;28;20064;-76
2022/03/07 02:49:23;;;;;;;19.02;8.18;;;;;;;;;;5082794;27;20557;-76
2022/03/07 02:51:48;;;;;;;23.38;10.63;;;;;;;;;;5083821;28;20044;-77
2022/03/07 02:54:14;;;;;;;17.48;8.38;;;;;;;;;;5077859;28;20063;-76
2022/03/07 02:56:39;;;;;;;16.25;7.63;;;;;;;;;;5091157;28;20031;-76
2022/03/07 02:59:04;;;;;;;18.67;8.25;;;;;;;;;;5091278;27;20055;-76
2022/03/07 03:01:30;;;;;;;17.40;8.60;;;;;;;;;;5079309;28;20043;-77
2022/03/07 03:03:55;;;;;;;20.88;8.23;;;;;;;;;;5082866;28;20381;-77
2022/03/07 03:06:21;;;;;;;19.20;7.70;;;;;;;;;;5089213;28;20119;-77
2022/03/07 03:08:46;;;;;;;15.98;7.80;;;;;;;;;;5084755;27;20404;-75
2022/03/07 03:11:11;;;;;;;14.48;7.00;;;;;;;;;;5073242;28;20078;-77
2022/03/07 03:13:38;;;;;;;16.10;6.47;;;;;;;;;;5086599;27;20517;-77
2022/03/07 03:16:05;;;;;;;19.40;8.57;;;;;;;;;;5084188;28;20480;-77
2022/03/07 03:18:30;;;;;;;14.40;6.72;;;;;;;;;;5071237;28;20081;-76
2022/03/07 03:20:56;;;;;;;16.98;7.95;;;;;;;;;;5073192;28;20036;-78
2022/03/07 03:23:22;;;;;;;17.60;7.55;;;;;;;;;;5078093;27;20032;-77
2022/03/07 03:25:48;;;;;;;18.20;8.27;;;;;;;;;;5082339;28;20042;-76
2022/03/07 03:28:14;;;;;;;13.25;6.30;;;;;;;;;;5076406;28;20021;-76
2022/03/07 03:30:39;;;;;;;18.20;7.35;;;;;;;;;;5110969;27;20015;-77
2022/03/07 03:33:05;;;;;;;17.65;7.85;;;;;;;;;;5122678;27;20072;-76
2022/03/07 03:35:31;;;;;;;16.40;7.45;;;;;;;;;;5108719;27;20024;-76
2022/03/07 03:37:57;;;;;;;23.67;8.15;;;;;;;;;;5105931;27;20131;-76
2022/03/07 03:40:22;;;;;;;20.50;8.13;;;;;;;;;;5110152;27;20015;-77
2022/03/07 03:42:47;;;;;;;16.75;7.10;;;;;;;;;;5107676;27;20023;-76
2022/03/07 03:45:14;;;;;;;18.40;8.52;;;;;;;;;;5092188;28;20042;-76
2022/03/07 03:47:41;;;;;;;19.38;8.05;;;;;;;;;;5089249;28;20064;-76
2022/03/07 03:50:10;;;;;;;20.08;7.95;;;;;;;;;;5104845;28;20497;-75
2022/03/07 03:52:37;;;;;;;18.08;7.68;;;;;;;;;;5092355;28;20052;-76
2022/03/07 03:55:06;;;;;;;13.18;7.00;;;;;;;;;;5084322;28;20036;-75
2022/03/07 03:57:32;;;;;;;16.52;6.95;;;;;;;;;;5076920;28;20037;-76
2022/03/07 03:59:57;;;;;;;17.13;7.60;;;;;;;;;;5085537;28;20115;-75
2022/03/07 04:02:23;;;;;;;18.15;8.30;;;;;;;;;;5082722;28;20040;-76
2022/03/07 04:04:48;;;;;;;18.27;7.20;;;;;;;;;;5082146;28;20036;-75
2022/03/07 04:07:14;;;;;;;17.70;8.07;;;;;;;;;;5081113;28;20110;-75
2022/03/07 04:09:39;;;;;;;21.63;9.23;;;;;;;;;;5084313;28;20558;-76
2022/03/07 04:12:05;;;;;;;15.13;7.65;;;;;;;;;;5088606;28;20035;-75
2022/03/07 04:14:30;;;;;;;18.48;8.88;;;;;;;;;;5088844;28;20062;-75
2022/03/07 04:16:56;;;;;;;17.65;7.75;;;;;;;;;;5088695;27;20062;-75
2022/03/07 04:19:21;;;;;;;19.35;7.35;;;;;;;;;;5091025;27;20065;-75
2022/03/07 04:21:47;;;;;;;16.25;7.85;;;;;;;;;;5100663;28;20020;-76
2022/03/07 04:24:13;;;;;;;14.40;6.78;;;;;;;;;;5084869;27;20060;-75
2022/03/07 04:26:40;;;;;;;16.50;7.22;;;;;;;;;;5082146;28;20028;-75
2022/03/07 04:29:08;;;;;;;19.27;8.45;;;;;;;;;;5090457;28;20430;-76
2022/03/07 04:31:38;;;;;;;13.35;6.63;;;;;;;;;;5098679;27;20058;-75
2022/03/07 04:34:04;;;;;;;15.93;7.40;;;;;;;;;;5099070;27;20580;-76
2022/03/07 04:36:30;;;;;;;17.73;8.60;;;;;;;;;;5105263;27;20100;-76
2022/03/07 04:38:56;;;;;;;18.35;7.22;;;;;;;;;;5103396;27;20987;-75
2022/03/07 04:41:21;;;;;;;15.52;7.13;;;;;;;;;;5100941;27;20031;-76
2022/03/07 04:43:47;;;;;;;19.02;7.47;;;;;;;;;;5106920;27;20581;-75
2022/03/07 04:46:12;;;;;;;19.40;7.80;;;;;;;;;;5104853;28;20431;-75
2022/03/07 04:48:37;;;;;;;17.50;7.82;;;;;;;;;;5105735;27;20114;-75
2022/03/07 04:51:03;;;;;;;16.13;7.82;;;;;;;;;;5105589;28;20028;-75
2022/03/07 04:53:29;;;;;;;18.00;7.97;;;;;;;;;;5116211;27;20070;-75
2022/03/07 04:55:54;;;;;;;19.50;7.47;;;;;;;;;;5105028;28;20032;-76
2022/03/07 04:58:20;;;;;;;20.05;8.07;;;;;;;;;;5098422;27;20524;-75
2022/03/07 05:00:45;;;;;;;16.30;7.78;;;;;;;;;;5099311;28;20034;-75
2022/03/07 05:03:11;;;;;;;18.45;7.85;;;;;;;;;;5111263;27;20073;-75
2022/03/07 05:05:37;;;;;;;18.38;7.78;;;;;;;;;;5096411;28;20042;-76
2022/03/07 05:08:02;;;;;;;19.73;7.82;;;;;;;;;;5099637;27;20039;-75
2022/03/07 05:10:27;;;;;;;17.27;7.03;;;;;;;;;;5105745;27;20071;-76
2022/03/07 05:12:53;;;;;;;17.20;7.63;;;;;;;;;;5106482;28;20432;-75
2022/03/07 05:15:18;;;;;;;15.70;7.88;;;;;;;;;;5106208;27;20042;-76
2022/03/07 05:17:46;;;;;;;12.68;7.25;;;;;;;;;;5105930;27;20108;-77
2022/03/07 05:20:12;;;;;;;17.58;7.07;;;;;;;;;;5105636;28;20023;-75
2022/03/07 05:22:39;;;;;;;15.50;7.53;;;;;;;;;;5105178;28;20024;-75
2022/03/07 05:25:05;;;;;;;18.98;7.38;;;;;;;;;;5096252;28;20080;-75
2022/03/07 05:27:31;;;;;;;16.80;7.40;;;;;;;;;;5100881;27;20066;-75
2022/03/07 05:29:56;;;;;;;16.92;6.95;;;;;;;;;;5107653;27;20055;-76
2022/03/07 05:32:21;;;;;;;17.92;7.15;;;;;;;;;;5104653;27;20078;-75
2022/03/07 05:34:47;;;;;;;13.60;6.82;;;;;;;;;;5105757;27;20096;-76
2022/03/07 05:37:12;;;;;;;18.27;7.63;;;;;;;;;;5101714;27;20043;-75
2022/03/07 05:39:37;;;;;;;16.00;7.43;;;;;;;;;;5105364;27;20030;-75
2022/03/07 05:42:03;;;;;;;21.55;8.15;;;;;;;;;;5102258;28;20054;-75
2022/03/07 05:44:29;;;;;;;14.13;5.93;;;;;;;;;;5100488;27;20046;-75
2022/03/07 05:46:54;;;;;;;12.63;6.15;;;;;;;;;;5100599;28;20028;-75
2022/03/07 05:49:20;;;;;;;18.98;8.00;;;;;;;;;;5106690;27;20088;-75
2022/03/07 05:51:46;;;;;;;16.63;7.70;;;;;;;;;;5097274;28;20008;-75
2022/03/07 05:54:11;;;;;;;17.27;7.38;;;;;;;;;;5101886;27;20032;-75
2022/03/07 05:56:37;;;;;;;24.83;9.85;;;;;;;;;;5090774;28;20027;-75
2022/03/07 05:59:02;;;;;;;22.55;9.90;;;;;;;;;;5103380;28;20036;-75
2022/03/07 06:01:28;;;;;;;21.30;9.25;;;;;;;;;;5098854;27;20036;-75
2022/03/07 06:03:53;;;;;;;20.27;9.18;;;;;;;;;;5110400;28;20024;-76
2022/03/07 06:06:18;;;;;;;23.33;9.70;;;;;;;;;;5100524;27;20085;-75
2022/03/07 06:08:44;;;;;;;25.00;10.10;;;;;;;;;;5103250;27;20444;-75
2022/03/07 06:11:09;;;;;;;22.00;9.25;;;;;;;;;;5091222;28;20466;-75
2022/03/07 06:13:34;;;;;;;23.95;9.25;;;;;;;;;;5084640;28;20036;-75
2022/03/07 06:15:59;;;;;;;17.02;7.93;;;;;;;;;;5101736;28;20023;-75
2022/03/07 06:18:25;;;;;;;16.73;8.02;;;;;;;;;;5104341;28;20043;-74
2022/03/07 06:20:50;;;;;;;20.63;7.53;;;;;;;;;;5105882;27;20185;-74
2022/03/07 06:23:16;;;;;;;23.40;9.15;;;;;;;;;;5107187;27;20028;-75
2022/03/07 06:25:41;;;;;;;18.55;7.47;;;;;;;;;;5106129;27;20031;-75
2022/03/07 06:28:07;;;;;;;24.00;9.55;;;;;;;;;;5107663;28;20028;-75
2022/03/07 06:30:32;;;;;;;18.95;8.52;;;;;;;;;;5081038;28;20051;-75
2022/03/07 06:32:57;;;;;;;19.70;9.20;;;;;;;;;;5084181;28;20042;-75
2022/03/07 06:35:23;;;;;;;19.27;8.07;;;;;;;;;;5088305;28;20036;-75
2022/03/07 06:37:50;;;;;;;19.52;8.35;;;;;;;;;;5087500;28;20044;-74
2022/03/07 06:40:16;;;;;;;19.25;8.80;;;;;;;;;;5083427;28;20060;-75
2022/03/07 06:42:43;;;;;;;18.50;7.80;;;;;;;;;;5079757;28;20017;-74
2022/03/07 06:45:12;;;;;;;16.23;7.25;;;;;;;;;;5082176;28;20458;-75
2022/03/07 06:47:37;;;;;;;23.55;7.28;;;;;;;;;;5082021;28;20142;-75
2022/03/07 06:50:03;;;;;;;16.98;6.45;;;;;;;;;;5091424;28;20132;-74
2022/03/07 06:52:28;;;;;;;22.33;9.15;;;;;;;;;;5087983;28;20043;-74
2022/03/07 06:54:54;;;;;;;22.00;8.60;;;;;;;;;;5085006;28;20036;-74
2022/03/07 06:57:21;;;;;;;19.08;7.72;;;;;;;;;;5086447;27;20036;-74
2022/03/07 06:59:47;;;;;;;17.52;8.60;;;;;;;;;;5082836;27;20036;-74
2022/03/07 07:02:13;;;;;;;21.65;7.80;;;;;;;;;;5086096;27;20134;-74
2022/03/07 07:04:39;;;;;;;19.90;8.82;;;;;;;;;;5085008;27;20520;-78
2022/03/07 07:07:05;;;;;;;17.88;7.70;;;;;;;;;;5098575;27;20027;-79
2022/03/07 07:09:30;;;;;;;22.73;7.57;;;;;;;;;;5101961;27;20031;-81
2022/03/07 07:11:56;;;;;;;16.95;6.85;;;;;;;;;;5095370;27;20041;-78
2022/03/07 07:14:21;;;;;;;18.35;7.93;;;;;;;;;;5102407;27;20048;-72
2022/03/07 07:16:47;;;;;;;22.27;8.52;;;;;;;;;;5098940;27;20051;-76
2022/03/07 07:19:12;;;;;;;18.52;8.23;;;;;;;;;;5103266;27;20485;-77
2022/03/07 07:21:38;;;;;;;19.73;8.73;;;;;;;;;;5101998;27;20808;-76
2022/03/07 07:24:03;;;;;;;17.38;7.38;;;;;;;;;;5102282;28;20035;-73
2022/03/07 07:26:29;;;;;;;17.52;8.27;;;;;;;;;;5097099;28;20078;-77
2022/03/07 07:28:54;;;;;;;26.13;8.80;;;;;;;;;;5105845;27;20091;-80
2022/03/07 07:31:19;;;;;;;18.83;8.13;;;;;;;;;;5096933;28;20075;-79
2022/03/07 07:33:44;;;;;;;21.15;7.57;;;;;;;;;;5106757;27;20048;-79
2022/03/07 07:36:10;;;;;;;14.95;7.43;;;;;;;;;;5106119;27;20412;-79
2022/03/07 07:38:35;;;;;;;14.63;6.53;;;;;;;;;;5106488;27;20059;-78
2022/03/07 07:41:00;;;;;;;20.55;8.52;;;;;;;;;;5097137;27;20046;-75
2022/03/07 07:43:26;;;;;;;26.08;10.10;;;;;;;;;;5102511;27;20940;-74
2022/03/07 07:45:51;;;;;;;24.85;9.88;;;;;;;;;;5095902;27;20334;-76
2022/03/07 07:48:16;;;;;;;21.60;10.02;;;;;;;;;;5101549;27;20188;-78
2022/03/07 07:50:42;;;;;;;14.40;6.60;;;;;;;;;;5088462;27;20614;-79
2022/03/07 07:53:07;;;;;;;17.45;7.75;;;;;;;;;;5083516;28;20425;-77
2022/03/07 07:55:32;;;;;;;16.25;7.10;;;;;;;;;;5080877;28;20101;-78
2022/03/07 07:57:58;;;;;;;17.30;8.38;;;;;;;;;;5085009;28;20076;-78
2022/03/07 08:00:23;;;;;;;18.10;8.70;;;;;;;;;;5086460;28;20097;-72
2022/03/07 08:02:50;;;;;;;11.45;5.03;;;;;;;;;;5098764;27;20076;-75
2022/03/07 08:05:17;;;;;;;17.83;7.45;;;;;;;;;;5101927;27;20031;-73
2022/03/07 08:07:43;;;;;;;15.98;7.45;;;;;;;;;;5104402;27;20091;-74
2022/03/07 08:10:14;;;;;;;19.35;8.77;;;;;;;;;;5106004;27;20023;-77
2022/03/07 08:12:40;;;;;;;23.25;8.85;;;;;;;;;;5105195;28;20023;-77
2022/03/07 08:15:11;;;;;;;17.75;7.78;;;;;;;;;;5106414;27;20028;-75
2022/03/07 08:17:49;;;;;;;17.50;6.10;;;;;;;;;;5107802;27;20036;-76
2022/03/07 08:20:20;;;;;;;11.50;6.20;;;;;;;;;;5099449;27;20055;-73
2022/03/07 08:22:46;;;;;;;14.50;7.13;;;;;;;;;;5101291;27;20023;-74
2022/03/07 08:25:12;;;;;;;14.90;7.07;;;;;;;;;;5104355;27;20042;-74
2022/03/07 08:27:37;;;;;;;13.57;6.22;;;;;;;;;;5105678;28;20016;-72
2022/03/07 08:30:07;;;;;;;14.63;6.50;;;;;;;;;;5100013;27;20536;-72
2022/03/07 08:32:33;;;;;;;12.80;6.57;;;;;;;;;;5101505;27;20122;-74
2022/03/07 08:34:59;;;;;;;11.48;5.78;;;;;;;;;;5098603;28;20027;-75
2022/03/07 08:37:24;;;;;;;10.48;5.22;;;;;;;;;;5069992;28;20091;-73
2022/03/07 08:39:50;;;;;;;13.63;5.90;;;;;;;;;;5062525;28;20122;-79
2022/03/07 08:42:15;;;;;;;6.32;3.70;;;;;;;;;;5075847;28;20093;-75
2022/03/07 08:44:40;;;;;;;5.57;3.58;;;;;;;;;;5081776;27;20044;-79
2022/03/07 08:47:06;;;;;;;12.75;5.25;;;;;;;;;;5076625;28;20029;-79
2022/03/07 08:49:31;;;;;;;11.77;5.32;;;;;;;;;;5084612;28;20031;-80
2022/03/07 08:51:56;;;;;;;7.10;3.97;;;;;;;;;;5084517;27;20032;-80
2022/03/07 08:54:22;;;;;;;7.05;4.05;;;;;;;;;;5080073;28;20043;-79
2022/03/07 08:56:47;;;;;;;10.15;4.40;;;;;;;;;;5080089;28;20051;-79
2022/03/07 08:59:12;;;;;;;11.80;6.07;;;;;;;;;;5084773;27;20046;-75
2022/03/07 09:01:38;;;;;;;10.00;5.03;;;;;;;;;;5101229;27;20115;-77
2022/03/07 09:04:03;;;;;;;8.90;4.18;;;;;;;;;;5106314;27;20396;-72
2022/03/07 09:06:29;;;;;;;5.38;2.97;;;;;;;;;;5103110;28;20036;-70
2022/03/07 09:08:54;;;;;;;5.70;3.20;;;;;;;;;;5096713;27;20152;-71
2022/03/07 09:11:20;;;;;;;8.02;3.92;;;;;;;;;;5095399;28;20044;-72
2022/03/07 09:13:45;;;;;;;10.63;3.58;;;;;;;;;;5090073;28;20058;-73
2022/03/07 09:16:11;;;;;;;8.27;4.25;;;;;;;;;;5077154;27;20036;-72
2022/03/07 09:18:36;;;;;;;9.27;4.20;;;;;;;;;;5092205;27;20031;-75
2022/03/07 09:21:03;;;;;;;8.73;4.25;;;;;;;;;;5097370;27;20038;-72
2022/03/07 09:23:33;;;;;;;10.80;3.95;;;;;;;;;;5097675;27;20031;-72
2022/03/07 09:26:00;;;;;;;10.25;4.70;;;;;;;;;;5097787;27;20032;-73
2022/03/07 09:28:26;;;;;;;7.70;4.35;;;;;;;;;;5101135;28;20032;-72
2022/03/07 09:30:51;;;;;;;6.50;3.58;;;;;;;;;;5102653;27;20743;-71
2022/03/07 09:33:16;;;;;;;8.68;3.70;;;;;;;;;;5104986;27;20039;-73
2022/03/07 09:35:42;;;;;;;5.30;3.28;;;;;;;;;;5107009;27;20524;-72
2022/03/07 09:38:07;;;;;;;5.65;3.25;;;;;;;;;;5101485;27;20693;-71
2022/03/07 09:40:33;;;;;;;8.48;4.03;;;;;;;;;;5102870;27;20023;-69
2022/03/07 09:42:58;;;;;;;8.38;4.30;;;;;;;;;;5098019;27;20047;-69
2022/03/07 09:45:24;;;;;;;8.23;4.15;;;;;;;;;;5097773;28;20039;-70
2022/03/07 09:47:50;;;;;;;10.82;4.18;;;;;;;;;;5103243;27;20043;-71
2022/03/07 09:50:16;;;;;;;6.15;4.43;;;;;;;;;;5100249;28;20038;-69
2022/03/07 09:52:45;;;;;;;10.68;4.68;;;;;;;;;;5098319;28;20106;-68
2022/03/07 09:55:14;;;;;;;6.63;3.40;;;;;;;;;;5094582;28;20084;-70
2022/03/07 09:57:41;;;;;;;10.80;4.13;;;;;;;;;;5101899;27;20581;-71
2022/03/07 10:00:08;;;;;;;7.93;3.95;;;;;;;;;;5101580;27;20138;-70
2022/03/07 10:02:33;;;;;;;6.82;3.30;;;;;;;;;;5103981;27;21013;-75
2022/03/07 10:05:04;;;;;;;7.55;4.35;;;;;;;;;;5106422;27;20028;-75
2022/03/07 10:07:29;;;;;;;8.57;4.35;;;;;;;;;;5100020;28;20058;-75
2022/03/07 10:10:06;;;;;;;7.18;3.45;;;;;;;;;;5103493;27;20066;-74
2022/03/07 10:12:31;;;;;;;7.43;3.33;;;;;;;;;;5097132;27;20765;-75
2022/03/07 10:14:56;;;;;;;5.03;2.60;;;;;;;;;;5097723;27;20048;-75
2022/03/07 10:17:27;;;;;;;8.98;3.90;;;;;;;;;;5102436;27;20047;-76
2022/03/07 10:19:54;;;;;;;8.80;3.97;;;;;;;;;;5104748;27;20027;-71
2022/03/07 10:22:26;;;;;;;9.63;4.60;;;;;;;;;;5106336;27;20084;-72
2022/03/07 10:24:59;;;;;;;8.30;4.70;;;;;;;;;;5103224;27;20039;-71
2022/03/07 10:27:31;;;;;;;11.32;5.28;;;;;;;;;;5104148;27;20038;-70
2022/03/07 10:29:56;;;;;;;10.60;5.40;;;;;;;;;;5104076;28;20393;-76
2022/03/07 10:32:22;;;;;;;11.77;5.22;;;;;;;;;;5105478;27;20040;-75
2022/03/07 10:34:47;;;;;;;10.50;5.28;;;;;;;;;;5097142;27;20113;-75
2022/03/07 10:37:13;;;;;;;14.05;4.65;;;;;;;;;;5106192;27;20031;-80
2022/03/07 10:39:52;;;;;;;9.98;4.78;;;;;;;;;;5104354;28;20059;-76
2022/03/07 10:42:19;;;;;;;5.93;4.03;;;;;;;;;;5103466;28;20043;-74
2022/03/07 10:44:45;;;;;;;13.07;5.03;;;;;;;;;;5104944;27;20076;-74
2022/03/07 10:47:17;;;;;;;6.40;3.38;;;;;;;;;;5113769;27;20065;-75
2022/03/07 10:49:51;;;;;;;11.38;5.50;;;;;;;;;;5107974;28;20107;-72
2022/03/07 10:52:17;;;;;;;7.10;4.03;;;;;;;;;;5080874;28;20524;-74
2022/03/07 10:54:43;;;;;;;19.45;6.72;;;;;;;;;;5099424;28;20036;-73
2022/03/07 10:57:10;;;;;;;12.57;5.72;;;;;;;;;;5108300;27;20043;-71
2022/03/07 10:59:37;;;;;;;8.95;4.65;;;;;;;;;;5102020;27;20138;-74
2022/03/07 11:02:09;;;;;;;8.48;3.70;;;;;;;;;;5104398;27;20035;-72
2022/03/07 11:04:38;;;;;;;8.77;4.57;;;;;;;;;;5110573;27;20543;-77
2022/03/07 11:07:05;;;;;;;6.60;3.70;;;;;;;;;;5112445;27;20035;-74
2022/03/07 11:09:31;;;;;;;8.50;4.50;;;;;;;;;;5106298;27;20299;-70
2022/03/07 11:11:56;;;;;;;11.98;5.72;;;;;;;;;;5103317;27;20512;-75
2022/03/07 11:14:22;;;;;;;8.35;4.15;;;;;;;;;;5102138;27;20051;-76
2022/03/07 11:16:51;;;;;;;5.47;3.25;;;;;;;;;;5103935;27;20039;-76
2022/03/07 11:19:21;;;;;;;8.38;4.72;;;;;;;;;;5103074;27;20029;-78
2022/03/07 11:21:51;;;;;;;14.75;7.55;;;;;;;;;;5101283;27;20036;-76
2022/03/07 11:24:19;;;;;;;11.48;6.40;;;;;;;;;;5105017;27;20101;-81
2022/03/07 11:26:45;;;;;;;7.13;4.22;;;;;;;;;;5100698;28;20064;-77
2022/03/07 11:29:11;;;;;;;11.40;4.57;;;;;;;;;;5105414;27;20043;-76
2022/03/07 11:31:38;;;;;;;14.52;5.68;;;;;;;;;;5103841;27;20038;-75
2022/03/07 11:34:08;;;;;;;8.48;4.40;;;;;;;;;;5100868;27;20039;-75
2022/03/07 11:36:37;;;;;;;10.10;4.43;;;;;;;;;;5103034;28;20193;-75
2022/03/07 11:39:05;;;;;;;12.02;5.43;;;;;;;;;;5107005;27;20447;-75
2022/03/07 11:41:32;;;;;;;9.40;5.28;;;;;;;;;;5103471;28;20700;-76
2022/03/07 11:44:03;;;;;;;10.30;4.57;;;;;;;;;;5104184;27;20401;-75
2022/03/07 11:46:30;;;;;;;11.55;4.80;;;;;;;;;;5106076;28;20031;-75
2022/03/07 11:48:56;;;;;;;6.85;3.33;;;;;;;;;;5117902;27;20732;-75
2022/03/07 11:51:33;;;;;;;9.13;4.95;;;;;;;;;;5110166;27;20047;-75
2022/03/07 11:53:59;;;;;;;9.05;5.00;;;;;;;;;;5106518;27;20055;-77
2022/03/07 11:56:27;;;;;;;8.65;4.38;;;;;;;;;;5104127;27;20050;-75
2022/03/07 11:58:55;;;;;;;10.43;4.55;;;;;;;;;;5102308;27;20051;-77
2022/03/07 12:01:25;;;;;;;14.57;5.68;;;;;;;;;;5104641;27;20023;-76
2022/03/07 12:03:51;;;;;;;11.80;5.07;;;;;;;;;;5097085;27;20480;-74
2022/03/07 12:06:19;;;;;;;9.77;5.38;;;;;;;;;;5105491;27;20036;-75
2022/03/07 12:08:56;;;;;;;11.57;5.53;;;;;;;;;;5099403;27;20047;-77
2022/03/07 12:11:35;;;;;;;6.75;3.67;;;;;;;;;;5090109;27;20039;-76
2022/03/07 12:14:04;;;;;;;7.45;3.65;;;;;;;;;;5085337;28;20032;-79
2022/03/07 12:16:37;;;;;;;8.07;4.20;;;;;;;;;;5108132;27;20032;-78
2022/03/07 12:19:22;;;;;;;8.60;5.07;;;;;;;;;;5104183;27;20047;-75
2022/03/07 12:21:48;;;;;;;7.85;4.18;;;;;;;;;;5099605;27;20369;-77
2022/03/07 12:24:20;;;;;;;18.02;5.88;;;;;;;;;;5080059;27;20488;-76
2022/03/07 12:26:47;;;;;;;10.43;4.72;;;;;;;;;;5088992;27;20039;-77
2022/03/07 12:29:12;;;;;;;11.77;4.82;;;;;;;;;;5096730;27;20046;-77
2022/03/07 12:31:38;;;;;;;6.75;4.00;;;;;;;;;;5101887;28;20023;-77
2022/03/07 12:34:07;;;;;;;10.10;5.00;;;;;;;;;;5102326;27;20509;-77
2022/03/07 12:36:33;;;;;;;9.65;4.43;;;;;;;;;;5102260;27;20598;-77
2022/03/07 12:39:00;;;;;;;9.10;5.10;;;;;;;;;;5104743;28;20519;-77
2022/03/07 12:41:33;;;;;;;8.82;4.63;;;;;;;;;;5104273;27;20080;-79
2022/03/07 12:44:00;;;;;;;7.45;3.80;;;;;;;;;;5101877;27;20070;-74
2022/03/07 12:46:26;;;;;;;13.40;6.03;;;;;;;;;;5094019;27;20062;-78
2022/03/07 12:48:54;;;;;;;11.27;5.70;;;;;;;;;;5105729;27;20046;-72
2022/03/07 12:51:21;;;;;;;8.63;4.68;;;;;;;;;;5100390;27;20080;-74
2022/03/07 12:53:50;;;;;;;8.00;4.40;;;;;;;;;;5101559;28;20044;-73
2022/03/07 12:56:36;;;;;;;5.75;3.28;;;;;;;;;;5098720;27;20046;-75
2022/03/07 12:59:03;;;;;;;7.50;4.20;;;;;;;;;;5108390;27;20047;-75
2022/03/07 13:01:29;;;;;;;7.68;4.45;;;;;;;;;;5118241;27;20028;-75
2022/03/07 13:03:56;;;;;;;8.27;4.95;;;;;;;;;;5104482;27;20043;-72
2022/03/07 13:06:23;;;;;;;6.80;4.13;;;;;;;;;;5099229;27;20177;-74
2022/03/07 13:08:56;;;;;;;6.68;3.13;;;;;;;;;;5102742;27;20428;-73
2022/03/07 13:11:37;;;;;;;6.53;3.95;;;;;;;;;;5087898;28;20845;-72
2022/03/07 13:14:04;;;;;;;9.27;4.70;;;;;;;;;;5103242;27;20733;-73
2022/03/07 13:16:32;;;;;;;8.80;4.55;;;;;;;;;;5101364;28;20088;-73
2022/03/07 13:19:03;;;;;;;8.98;4.65;;;;;;;;;;5103421;27;20046;-77
2022/03/07 13:21:32;;;;;;;8.15;4.97;;;;;;;;;;5094909;27;20040;-77
2022/03/07 13:23:58;;;;;;;6.55;3.45;;;;;;;;;;5100876;27;20036;-72
2022/03/07 13:26:25;;;;;;;9.68;4.45;;;;;;;;;;5091350;28;20089;-72
2022/03/07 13:29:20;;;;;;;9.85;4.85;;;;;;;;;;5099274;27;20051;-72
2022/03/07 13:31:48;;;;;;;10.63;5.88;;;;;;;;;;5109140;27;20081;-72
2022/03/07 13:34:15;;;;;;;10.23;5.75;;;;;;;;;;5104242;27;20949;-72
2022/03/07 13:36:48;;;;;;;11.98;5.43;;;;;;;;;;5099808;27;20036;-71
2022/03/07 13:39:21;;;;;;;10.73;4.43;;;;;;;;;;5104192;27;20039;-73
2022/03/07 13:41:52;;;;;;;8.25;3.75;;;;;;;;;;5103699;27;20048;-72
2022/03/07 13:44:19;;;;;;;11.07;5.57;;;;;;;;;;5101098;27;20717;-71
2022/03/07 13:47:07;;;;;;;8.77;5.22;;;;;;;;;;5078801;28;20028;-71
2022/03/07 13:49:44;;;;;;;11.15;5.65;;;;;;;;;;5082977;28;20064;-73
2022/03/07 13:52:29;;;;;;;4.43;2.72;;;;;;;;;;5083612;28;20050;-71
2022/03/07 13:54:57;;;;;;;11.50;4.93;;;;;;;;;;5100586;28;20130;-74
2022/03/07 13:57:29;;;;;;;9.27;5.10;;;;;;;;;;5116521;27;20032;-74
2022/03/07 14:00:00;;;;;;;9.55;4.85;;;;;;;;;;5102626;27;20035;-75
2022/03/07 14:02:25;;;;;;;13.40;5.80;;;;;;;;;;5099561;28;20423;-74
2022/03/07 14:04:52;;;;;;;11.20;5.10;;;;;;;;;;5108777;27;20030;-74
2022/03/07 14:07:20;;;;;;;8.40;4.53;;;;;;;;;;5110270;27;20036;-74
2022/03/07 14:09:55;;;;;;;6.28;3.60;;;;;;;;;;5108412;27;20039;-74
2022/03/07 14:12:27;;;;;;;8.73;4.03;;;;;;;;;;5109986;27;20043;-75
2022/03/07 14:15:02;;;;;;;10.73;5.32;;;;;;;;;;5104919;27;20040;-72
2022/03/07 14:17:28;;;;;;;7.32;3.70;;;;;;;;;;5104967;27;20042;-72
2022/03/07 14:19:53;;;;;;;7.43;4.03;;;;;;;;;;5107149;27;20031;-72
2022/03/07 14:22:19;;;;;;;8.93;5.40;;;;;;;;;;5108359;27;20065;-73
2022/03/07 14:24:48;;;;;;;10.88;5.07;;;;;;;;;;5108751;27;20035;-71
2022/03/07 14:27:15;;;;;;;8.38;4.70;;;;;;;;;;5107007;28;20122;-74
2022/03/07 14:29:43;;;;;;;7.93;3.72;;;;;;;;;;5104792;27;20036;-72
2022/03/07 14:32:11;;;;;;;9.82;5.28;;;;;;;;;;5108302;27;20035;-72